Time;durP1;ratioP1;P1;durP2;ratioP2;P2;SDS_P1;SDS_P2;PMS_P1;PMS_P2;Temp;Humidity;BMP_temperature;BMP_pressure;BME280_temperature;BME280_humidity;BME280_pressure;Samples;Min_cycle;Max_cycle;Signal;HPM_P1;HPM_P2
2021/06/29 00:00:01;;;;;;;26.57;23.80;;;;;;;;;;2089601;28;20434;-74
2021/06/29 00:01:03;;;;;;;26.07;23.67;;;;;;;;;;2089716;28;20230;-75
2021/06/29 00:02:04;;;;;;;25.00;22.37;;;;;;;;;;2089689;28;20437;-74
2021/06/29 00:03:06;;;;;;;25.83;23.63;;;;;;;;;;2089720;28;20453;-74
2021/06/29 00:04:07;;;;;;;26.80;24.23;;;;;;;;;;2089292;28;20483;-77
2021/06/29 00:05:08;;;;;;;27.17;24.47;;;;;;;;;;2088940;28;20970;-74
2021/06/29 00:06:10;;;;;;;30.10;24.10;;;;;;;22.40;100.00;124656.63;2088804;28;20787;-74
2021/06/29 00:07:10;;;;;;;26.77;24.27;;;;;;;;;;2088849;28;20261;-74
2021/06/29 00:08:12;;;;;;;27.20;24.77;;;;;;;;;;2088859;28;23423;-74
2021/06/29 00:09:12;;;;;;;26.27;23.97;;;;;;;;;;2088834;28;20604;-75
2021/06/29 00:10:14;;;;;;;26.23;23.63;;;;;;;;;;2088853;28;20449;-74
2021/06/29 00:11:16;;;;;;;26.80;24.10;;;;;;;;;;2080753;28;20230;-74
2021/06/29 00:12:18;;;;;;;26.50;23.93;;;;;;;;;;2088988;28;20468;-75
2021/06/29 00:13:20;;;;;;;26.37;23.77;;;;;;;;;;2089692;28;20464;-74
2021/06/29 00:14:21;;;;;;;34.47;23.33;;;;;;;;;;2089650;28;20437;-74
2021/06/29 00:15:23;;;;;;;26.73;24.13;;;;;;;22.40;100.00;124656.63;2089308;28;20511;-75
2021/06/29 00:16:26;;;;;;;25.40;23.03;;;;;;;;;;2089126;28;20499;-75
2021/06/29 00:17:27;;;;;;;25.63;23.23;;;;;;;;;;2089572;28;20465;-74
2021/06/29 00:18:28;;;;;;;25.93;23.73;;;;;;;;;;2089576;28;20484;-75
2021/06/29 00:19:29;;;;;;;25.00;22.87;;;;;;;;;;2089596;28;20579;-74
2021/06/29 00:20:30;;;;;;;26.13;23.43;;;;;;;;;;2089484;28;20485;-74
2021/06/29 00:21:31;;;;;;;24.57;22.40;;;;;;;;;;2089567;28;20219;-74
2021/06/29 00:22:33;;;;;;;25.50;22.87;;;;;;;;;;2089493;28;20465;-74
2021/06/29 00:23:38;;;;;;;25.20;22.53;;;;;;;22.40;100.00;57699.41;2089696;28;20288;-74
2021/06/29 00:24:39;;;;;;;27.10;23.70;;;;;;;;;;2089066;28;20461;-74
2021/06/29 00:25:40;;;;;;;25.57;23.03;;;;;;;;;;2088726;28;20446;-74
2021/06/29 00:26:41;;;;;;;26.23;23.73;;;;;;;;;;2088778;28;21049;-74
2021/06/29 00:27:42;;;;;;;25.67;23.10;;;;;;;;;;2088642;28;20222;-74
2021/06/29 00:28:43;;;;;;;25.23;23.03;;;;;;;;;;2088754;28;20935;-74
2021/06/29 00:29:44;;;;;;;26.80;23.77;;;;;;;;;;2088590;28;20592;-74
2021/06/29 00:30:46;;;;;;;26.67;23.90;;;;;;;;;;2088733;28;20491;-75
2021/06/29 00:31:48;;;;;;;25.27;23.17;;;;;;;;;;2089365;28;20461;-74
2021/06/29 00:32:50;;;;;;;25.40;23.00;;;;;;;;;;2088653;28;20442;-74
2021/06/29 00:33:50;;;;;;;25.17;22.67;;;;;;;;;;2088428;28;20489;-74
2021/06/29 00:34:52;;;;;;;25.43;22.77;;;;;;;;;;2088690;28;20468;-74
2021/06/29 00:35:52;;;;;;;25.63;23.30;;;;;;;;;;2088944;28;20254;-75
2021/06/29 00:36:54;;;;;;;25.10;22.60;;;;;;;;;;2088437;28;20529;-74
2021/06/29 00:37:55;;;;;;;25.13;22.90;;;;;;;;;;2088698;28;20237;-74
2021/06/29 00:38:56;;;;;;;26.43;23.80;;;;;;;22.43;100.00;69769.22;2088585;28;20465;-74
2021/06/29 00:39:57;;;;;;;26.97;24.13;;;;;;;;;;2088605;28;20534;-74
2021/06/29 00:40:58;;;;;;;26.43;23.93;;;;;;;;;;2088438;28;20589;-74
2021/06/29 00:41:59;;;;;;;26.60;22.00;;;;;;;;;;2080151;28;20537;-74
2021/06/29 00:43:00;;;;;;;26.00;23.33;;;;;;;;;;2088813;28;20226;-74
2021/06/29 00:44:01;;;;;;;27.33;24.43;;;;;;;;;;2080211;28;20519;-74
2021/06/29 00:45:02;;;;;;;25.60;23.00;;;;;;;;;;2080369;28;20223;-74
2021/06/29 00:46:04;;;;;;;25.67;23.37;;;;;;;;;;2088629;28;20520;-75
2021/06/29 00:47:08;;;;;;;26.27;23.57;;;;;;;;;;2089250;28;20695;-74
2021/06/29 00:48:10;;;;;;;25.50;23.00;;;;;;;;;;2088875;28;20514;-74
2021/06/29 00:49:10;;;;;;;25.43;22.80;;;;;;;;;;2088299;28;20469;-75
2021/06/29 00:50:12;;;;;;;26.13;23.70;;;;;;;;;;2088503;28;23419;-74
2021/06/29 00:51:14;;;;;;;25.43;23.00;;;;;;;;;;2088165;28;20218;-75
2021/06/29 00:52:16;;;;;;;25.60;23.07;;;;;;;;;;2088498;28;20445;-74
2021/06/29 00:53:16;;;;;;;25.27;22.93;;;;;;;;;;2089323;28;20456;-74
2021/06/29 00:54:18;;;;;;;26.40;23.67;;;;;;;22.40;100.00;57707.53;2088461;28;20978;-74
2021/06/29 00:55:19;;;;;;;24.83;22.73;;;;;;;;;;2080236;28;20227;-74
2021/06/29 00:56:21;;;;;;;25.47;23.17;;;;;;;;;;2080221;28;20474;-75
2021/06/29 00:57:21;;;;;;;26.00;22.83;;;;;;;22.40;100.00;57699.41;2088107;28;20230;-77
2021/06/29 00:58:23;;;;;;;26.30;23.80;;;;;;;;;;2088294;28;20963;-75
2021/06/29 00:59:23;;;;;;;25.53;22.90;;;;;;;;;;2080368;28;20234;-74
2021/06/29 01:00:25;;;;;;;26.13;23.67;;;;;;;;;;2088282;28;20481;-75
2021/06/29 01:01:26;;;;;;;26.20;23.60;;;;;;;;;;2088564;28;20227;-74
2021/06/29 01:02:28;;;;;;;28.53;24.60;;;;;;;;;;2089153;28;20453;-74
2021/06/29 01:03:29;;;;;;;26.60;23.80;;;;;;;;;;2089261;28;20226;-74
2021/06/29 01:04:31;;;;;;;25.13;22.83;;;;;;;;;;2088235;28;20484;-74
2021/06/29 01:05:32;;;;;;;26.57;24.00;;;;;;;;;;2080079;28;20705;-75
2021/06/29 01:06:34;;;;;;;26.90;24.20;;;;;;;;;;2088551;28;20800;-74
2021/06/29 01:07:35;;;;;;;26.40;23.73;;;;;;;;;;2089108;28;20217;-75
2021/06/29 01:08:36;;;;;;;26.00;23.60;;;;;;;;;;2088366;28;20492;-74
2021/06/29 01:09:37;;;;;;;25.77;23.40;;;;;;;;;;2079600;28;20324;-75
2021/06/29 01:10:39;;;;;;;27.20;24.53;;;;;;;;;;2088413;28;20457;-74
2021/06/29 01:11:39;;;;;;;29.47;23.50;;;;;;;;;;2088178;28;20465;-74
2021/06/29 01:12:41;;;;;;;25.67;23.27;;;;;;;;;;2079980;28;21039;-75
2021/06/29 01:13:42;;;;;;;25.73;23.50;;;;;;;;;;2088432;28;20238;-73
2021/06/29 01:14:43;;;;;;;26.47;24.00;;;;;;;;;;2089132;28;20476;-74
2021/06/29 01:15:44;;;;;;;26.33;23.53;;;;;;;;;;2088360;28;20550;-74
2021/06/29 01:16:46;;;;;;;26.17;23.63;;;;;;;;;;2079717;28;20430;-74
2021/06/29 01:17:48;;;;;;;25.43;22.97;;;;;;;;;;2080386;28;20274;-74
2021/06/29 01:18:49;;;;;;;25.77;23.43;;;;;;;;;;2088189;28;20469;-75
2021/06/29 01:19:51;;;;;;;25.53;23.27;;;;;;;;;;2088226;28;20461;-74
2021/06/29 01:20:55;;;;;;;25.33;22.93;;;;;;;;;;2087973;28;20473;-75
2021/06/29 01:21:55;;;;;;;25.77;23.27;;;;;;;;;;2088949;28;20881;-74
2021/06/29 01:23:00;;;;;;;26.37;23.90;;;;;;;;;;2088268;28;20450;-74
2021/06/29 01:24:02;;;;;;;26.63;24.03;;;;;;;;;;2088327;28;20223;-75
2021/06/29 01:25:04;;;;;;;26.20;23.83;;;;;;;;;;2088248;28;20437;-74
2021/06/29 01:26:11;;;;;;;26.53;23.43;;;;;;;;;;2088187;28;20806;-74
2021/06/29 01:27:23;;;;;;;25.23;23.10;;;;;;;;;;2087716;28;20481;-75
2021/06/29 01:28:28;;;;;;;26.10;23.57;;;;;;;;;;2080763;28;20975;-74
2021/06/29 01:29:41;;;;;;;26.63;23.93;;;;;;;;;;2079876;28;20465;-74
2021/06/29 01:31:03;;;;;;;29.30;23.70;;;;;;;;;;2079962;28;20952;-76
2021/06/29 01:32:04;;;;;;;25.93;23.50;;;;;;;;;;2088215;28;20507;-74
2021/06/29 01:33:04;;;;;;;26.50;24.03;;;;;;;;;;2089022;28;20499;-74
2021/06/29 01:34:06;;;;;;;26.13;23.37;;;;;;;;;;2088145;28;20222;-74
2021/06/29 01:35:07;;;;;;;27.13;23.93;;;;;;;;;;2087885;28;20227;-75
2021/06/29 01:36:10;;;;;;;25.63;23.13;;;;;;;;;;2088960;28;20809;-75
2021/06/29 01:37:12;;;;;;;26.57;24.10;;;;;;;;;;2088877;28;20495;-75
2021/06/29 01:38:17;;;;;;;26.37;23.97;;;;;;;;;;2088984;28;20493;-75
2021/06/29 01:39:18;;;;;;;26.00;23.70;;;;;;;;;;2088937;28;20457;-74
2021/06/29 01:40:23;;;;;;;26.17;23.60;;;;;;;;;;2088964;28;20434;-74
2021/06/29 01:41:24;;;;;;;27.57;23.97;;;;;;;;;;2081183;28;20697;-74
2021/06/29 01:42:26;;;;;;;25.67;23.47;;;;;;;22.41;100.00;124329.44;2071734;28;20452;-74
2021/06/29 01:43:29;;;;;;;26.03;23.60;;;;;;;;;;2079846;28;20838;-74
2021/06/29 01:44:33;;;;;;;27.37;24.63;;;;;;;;;;2080018;28;20804;-74
2021/06/29 01:45:34;;;;;;;25.83;23.37;;;;;;;;;;2079760;28;20893;-74
2021/06/29 01:46:37;;;;;;;26.43;24.03;;;;;;;;;;2079928;28;20853;-74
2021/06/29 01:47:51;;;;;;;26.93;24.03;;;;;;;;;;2085639;28;20231;-74
2021/06/29 01:48:53;;;;;;;25.80;23.60;;;;;;;;;;2087546;28;20465;-75
2021/06/29 01:49:55;;;;;;;26.30;23.63;;;;;;;;;;2088060;28;20457;-74
2021/06/29 01:50:57;;;;;;;26.13;23.87;;;;;;;;;;2088743;28;20457;-74
2021/06/29 01:51:59;;;;;;;27.03;24.33;;;;;;;;;;2088743;28;20825;-74
2021/06/29 01:53:00;;;;;;;25.90;23.60;;;;;;;;;;2088793;28;20461;-74
2021/06/29 01:54:01;;;;;;;26.40;23.50;;;;;;;;;;2088789;28;20457;-74
2021/06/29 01:55:02;;;;;;;25.87;23.47;;;;;;;;;;2087852;28;20441;-74
2021/06/29 01:56:03;;;;;;;27.50;24.53;;;;;;;;;;2088139;28;20683;-74
2021/06/29 01:57:05;;;;;;;25.50;23.03;;;;;;;;;;2088947;28;20442;-74
2021/06/29 01:58:06;;;;;;;24.67;22.40;;;;;;;;;;2087842;28;20550;-74
2021/06/29 01:59:09;;;;;;;24.53;22.43;;;;;;;22.40;100.00;124656.63;2079394;28;20466;-76
2021/06/29 02:00:13;;;;;;;25.87;23.40;;;;;;;;;;2087996;28;20313;-74
2021/06/29 02:01:14;;;;;;;25.63;23.10;;;;;;;;;;2088668;28;20449;-74
2021/06/29 02:02:15;;;;;;;26.07;23.67;;;;;;;;;;2087974;28;20453;-75
2021/06/29 02:03:16;;;;;;;26.83;24.13;;;;;;;;;;2088057;28;20457;-74
2021/06/29 02:04:17;;;;;;;25.17;22.97;;;;;;;;;;2088883;28;20681;-74
2021/06/29 02:05:18;;;;;;;26.53;23.73;;;;;;;;;;2088125;28;20827;-74
2021/06/29 02:06:19;;;;;;;26.13;23.67;;;;;;;;;;2087891;28;20719;-74
2021/06/29 02:07:21;;;;;;;26.23;23.47;;;;;;;;;;2088613;28;20882;-74
2021/06/29 02:08:22;;;;;;;25.77;23.27;;;;;;;;;;2088391;28;20665;-75
2021/06/29 02:09:23;;;;;;;25.83;23.43;;;;;;;;;;2087905;28;20856;-74
2021/06/29 02:10:24;;;;;;;25.63;23.43;;;;;;;;;;2088007;28;20736;-74
2021/06/29 02:11:25;;;;;;;27.20;24.53;;;;;;;;;;2087886;28;20859;-74
2021/06/29 02:12:26;;;;;;;26.43;23.80;;;;;;;-141.66;100.00;91335.66;2087975;28;20226;-74
2021/06/29 02:13:27;;;;;;;27.60;24.50;;;;;;;;;;2087887;28;20548;-74
2021/06/29 02:14:28;;;;;;;26.80;23.07;;;;;;;;;;2088035;28;20608;-74
2021/06/29 02:15:29;;;;;;;25.80;23.40;;;;;;;;;;2088270;28;20488;-74
2021/06/29 02:16:30;;;;;;;26.40;23.80;;;;;;;;;;2088109;28;20594;-74
2021/06/29 02:17:32;;;;;;;26.90;24.50;;;;;;;;;;2087874;28;20453;-74
2021/06/29 02:18:32;;;;;;;27.00;24.23;;;;;;;;;;2079646;28;20239;-74
2021/06/29 02:19:34;;;;;;;26.30;23.87;;;;;;;;;;2087886;28;20465;-74
2021/06/29 02:20:35;;;;;;;27.50;24.77;;;;;;;;;;2079719;28;20223;-75
2021/06/29 02:21:36;;;;;;;26.70;24.20;;;;;;;;;;2079611;28;20478;-74
2021/06/29 02:22:38;;;;;;;25.60;23.13;;;;;;;;;;2081357;28;20230;-75
2021/06/29 02:23:39;;;;;;;27.93;25.10;;;;;;;;;;2079365;28;20892;-74
2021/06/29 02:24:40;;;;;;;28.00;25.10;;;;;;;22.40;100.00;124656.63;2071280;28;20459;-74
2021/06/29 02:25:42;;;;;;;28.60;25.73;;;;;;;;;;2079527;28;20458;-75
2021/06/29 02:26:42;;;;;;;26.53;24.20;;;;;;;;;;2080411;28;20231;-74
2021/06/29 02:27:44;;;;;;;26.83;24.40;;;;;;;;;;2079513;28;20481;-74
2021/06/29 02:28:45;;;;;;;28.97;25.80;;;;;;;;;;2079702;28;20694;-74
2021/06/29 02:29:46;;;;;;;29.07;26.37;;;;;;;;;;2080262;28;20785;-74
2021/06/29 02:30:47;;;;;;;27.63;25.03;;;;;;;;;;2080385;28;20713;-74
2021/06/29 02:31:48;;;;;;;28.60;25.70;;;;;;;;;;2080291;28;20794;-74
2021/06/29 02:32:49;;;;;;;28.30;25.53;;;;;;;;;;2079549;28;20231;-74
2021/06/29 02:33:50;;;;;;;30.60;26.70;;;;;;;;;;2071502;28;20455;-74
2021/06/29 02:34:51;;;;;;;29.97;26.97;;;;;;;;;;2079572;28;20227;-74
2021/06/29 02:35:53;;;;;;;30.87;27.63;;;;;;;22.40;100.00;124656.63;2085536;28;20467;-74
2021/06/29 02:36:53;;;;;;;29.67;26.43;;;;;;;;;;2087689;28;20237;-75
2021/06/29 02:37:56;;;;;;;28.90;26.00;;;;;;;;;;2079439;28;20497;-74
2021/06/29 02:38:56;;;;;;;29.27;26.30;;;;;;;;;;2087823;28;20731;-74
2021/06/29 02:39:58;;;;;;;28.40;25.50;;;;;;;;;;2089394;28;20862;-74
2021/06/29 02:40:58;;;;;;;27.80;24.90;;;;;;;;;;2090370;28;20222;-74
2021/06/29 02:42:00;;;;;;;28.80;25.70;;;;;;;;;;2090015;28;20489;-74
2021/06/29 02:43:01;;;;;;;30.67;26.17;;;;;;;;;;2090275;28;20222;-74
2021/06/29 02:44:02;;;;;;;27.67;24.73;;;;;;;;;;2090164;28;20488;-74
2021/06/29 02:45:06;;;;;;;30.63;26.27;;;;;;;;;;2089817;28;20222;-74
2021/06/29 02:46:07;;;;;;;29.33;26.33;;;;;;;;;;2089841;28;20460;-77
2021/06/29 02:47:08;;;;;;;27.53;24.63;;;;;;;;;;2090099;28;20801;-74
2021/06/29 02:48:09;;;;;;;27.97;25.10;;;;;;;;;;2089343;28;20544;-74
2021/06/29 02:49:10;;;;;;;30.97;26.60;;;;;;;;;;2089515;28;20229;-75
2021/06/29 02:50:12;;;;;;;28.07;25.17;;;;;;;;;;2090152;28;20484;-74
2021/06/29 02:51:13;;;;;;;29.47;26.33;;;;;;;22.40;100.00;124656.63;2089646;28;20578;-75
2021/06/29 02:52:14;;;;;;;37.50;25.97;;;;;;;;;;2089505;28;20483;-74
2021/06/29 02:53:16;;;;;;;28.50;25.70;;;;;;;;;;2089442;28;20457;-74
2021/06/29 02:54:18;;;;;;;29.77;26.73;;;;;;;;;;2081163;28;20822;-75
2021/06/29 02:55:19;;;;;;;30.50;27.23;;;;;;;;;;2089499;28;20817;-74
2021/06/29 02:56:39;;;;;;;28.70;25.73;;;;;;;;;;2090217;28;20994;-74
2021/06/29 02:57:40;;;;;;;29.57;26.70;;;;;;;;;;2083004;28;20458;-74
2021/06/29 02:58:41;;;;;;;28.13;25.33;;;;;;;;;;2082134;28;20511;-74
2021/06/29 02:59:42;;;;;;;28.50;25.83;;;;;;;;;;2081935;28;20512;-75
2021/06/29 03:00:43;;;;;;;29.57;26.37;;;;;;;;;;2081923;28;20230;-74
2021/06/29 03:01:45;;;;;;;29.03;26.23;;;;;;;22.40;100.00;57699.41;2081858;28;20537;-74
2021/06/29 03:02:46;;;;;;;28.83;25.83;;;;;;;;;;2081959;28;20254;-74
2021/06/29 03:03:47;;;;;;;30.90;26.37;;;;;;;;;;2081127;28;20477;-74
2021/06/29 03:04:48;;;;;;;28.93;25.90;;;;;;;;;;2081335;28;20227;-74
2021/06/29 03:05:49;;;;;;;35.50;26.23;;;;;;;;;;2081706;28;20489;-74
2021/06/29 03:06:50;;;;;;;29.27;26.20;;;;;;;;;;2081155;28;20235;-74
2021/06/29 03:07:51;;;;;;;30.20;27.07;;;;;;;;;;2080984;28;20462;-74
2021/06/29 03:08:53;;;;;;;30.03;26.73;;;;;;;;;;2084715;28;20231;-75
2021/06/29 03:09:55;;;;;;;30.10;25.87;;;;;;;;;;2082004;28;20556;-75
2021/06/29 03:10:55;;;;;;;30.27;27.00;;;;;;;;;;2081704;28;20457;-74
2021/06/29 03:11:57;;;;;;;29.93;26.53;;;;;;;;;;2081861;28;20635;-74
2021/06/29 03:12:57;;;;;;;31.20;26.73;;;;;;;;;;2080968;28;20662;-74
2021/06/29 03:13:59;;;;;;;30.83;27.23;;;;;;;;;;2072782;28;20518;-74
2021/06/29 03:15:00;;;;;;;31.43;28.13;;;;;;;;;;2080980;28;20231;-74
2021/06/29 03:16:02;;;;;;;30.03;26.27;;;;;;;;;;2081722;28;20438;-74
2021/06/29 03:17:03;;;;;;;30.17;27.53;;;;;;;;;;2080867;28;20532;-74
2021/06/29 03:18:05;;;;;;;32.17;26.97;;;;;;;;;;2081084;28;20477;-74
2021/06/29 03:19:05;;;;;;;29.37;26.40;;;;;;;;;;2081833;28;20230;-75
2021/06/29 03:20:08;;;;;;;30.23;27.07;;;;;;;;;;2081117;28;20461;-74
2021/06/29 03:21:08;;;;;;;29.50;26.57;;;;;;;;;;2087167;28;20719;-74
2021/06/29 03:22:10;;;;;;;31.53;28.23;;;;;;;;;;2089963;28;20836;-75
2021/06/29 03:23:10;;;;;;;29.63;26.93;;;;;;;;;;2089345;28;20232;-74
2021/06/29 03:24:13;;;;;;;32.43;28.20;;;;;;;;;;2080766;28;20496;-74
2021/06/29 03:25:14;;;;;;;31.50;28.37;;;;;;;;;;2089144;28;20226;-74
2021/06/29 03:26:15;;;;;;;31.40;27.63;;;;;;;;;;2089096;28;20476;-74
2021/06/29 03:27:16;;;;;;;30.57;27.47;;;;;;;;;;2090138;28;20225;-74
2021/06/29 03:28:18;;;;;;;31.97;28.13;;;;;;;;;;2089908;28;20935;-74
2021/06/29 03:29:19;;;;;;;30.17;26.87;;;;;;;;;;2089034;28;20351;-74
2021/06/29 03:30:21;;;;;;;29.40;26.30;;;;;;;22.40;100.00;124656.63;2089212;28;20437;-74
2021/06/29 03:31:22;;;;;;;30.50;27.13;;;;;;;;;;2080501;28;20457;-75
2021/06/29 03:32:23;;;;;;;30.90;27.50;;;;;;;;;;2080883;28;20465;-74
2021/06/29 03:33:24;;;;;;;29.00;26.20;;;;;;;;;;2089141;28;20524;-74
2021/06/29 03:34:25;;;;;;;30.47;27.37;;;;;;;22.40;100.00;124656.63;2089047;28;20222;-74
2021/06/29 03:35:27;;;;;;;30.47;27.27;;;;;;;;;;2089012;28;20543;-74
2021/06/29 03:36:29;;;;;;;31.33;27.47;;;;;;;;;;2089100;28;20221;-74
2021/06/29 03:37:30;;;;;;;29.80;26.63;;;;;;;;;;2088992;28;20441;-74
2021/06/29 03:38:31;;;;;;;32.03;27.17;;;;;;;;;;2089041;28;20476;-74
2021/06/29 03:39:33;;;;;;;31.03;26.90;;;;;;;;;;2088904;28;20225;-75
2021/06/29 03:40:35;;;;;;;31.00;27.77;;;;;;;;;;2089243;28;20476;-74
2021/06/29 03:41:35;;;;;;;31.13;27.67;;;;;;;;;;2089038;28;20793;-74
2021/06/29 03:42:37;;;;;;;29.67;26.77;;;;;;;;;;2089842;28;20500;-74
2021/06/29 03:43:38;;;;;;;29.83;26.70;;;;;;;;;;2082154;28;20280;-75
2021/06/29 03:44:40;;;;;;;29.87;26.90;;;;;;;;;;2080845;28;21006;-74
2021/06/29 03:45:40;;;;;;;30.40;27.13;;;;;;;;;;2081434;28;20465;-74
2021/06/29 03:46:42;;;;;;;29.43;26.50;;;;;;;;;;2081409;28;20533;-75
2021/06/29 03:47:42;;;;;;;32.67;28.17;;;;;;;;;;2081639;28;20223;-74
2021/06/29 03:48:44;;;;;;;30.77;27.77;;;;;;;;;;2081566;28;20519;-75
2021/06/29 03:49:44;;;;;;;31.17;27.63;;;;;;;;;;2080713;28;20725;-74
2021/06/29 03:50:46;;;;;;;30.30;27.23;;;;;;;;;;2081026;28;20814;-74
2021/06/29 03:51:46;;;;;;;31.33;27.53;;;;;;;;;;2080727;28;20228;-74
2021/06/29 03:52:48;;;;;;;30.30;27.17;;;;;;;;;;2081024;28;20516;-75
2021/06/29 03:53:48;;;;;;;31.53;28.17;;;;;;;;;;2080757;28;20297;-75
2021/06/29 03:54:51;;;;;;;31.63;28.20;;;;;;;;;;2081453;28;20458;-74
2021/06/29 03:55:52;;;;;;;29.53;26.50;;;;;;;;;;2087309;28;20246;-75
2021/06/29 03:56:53;;;;;;;31.90;28.37;;;;;;;;;;2089647;28;20473;-74
2021/06/29 03:57:53;;;;;;;31.23;27.97;;;;;;;;;;2089575;28;20227;-75
2021/06/29 03:58:56;;;;;;;30.73;27.90;;;;;;;;;;2089679;28;20450;-74
2021/06/29 03:59:56;;;;;;;32.67;27.57;;;;;;;;;;2089697;28;20234;-74
2021/06/29 04:00:58;;;;;;;31.97;28.57;;;;;;;;;;2088833;28;21021;-74
2021/06/29 04:01:58;;;;;;;31.13;27.83;;;;;;;;;;2088789;28;20227;-74
2021/06/29 04:03:00;;;;;;;32.43;29.23;;;;;;;;;;2089739;28;20935;-74
2021/06/29 04:04:01;;;;;;;32.03;28.67;;;;;;;;;;2088850;28;20211;-74
2021/06/29 04:05:02;;;;;;;32.90;29.23;;;;;;;;;;2088720;28;20503;-74
2021/06/29 04:06:03;;;;;;;34.67;28.07;;;;;;;;;;2088749;28;20231;-74
2021/06/29 04:07:07;;;;;;;31.13;28.13;;;;;;;;;;2088815;28;20512;-74
2021/06/29 04:08:07;;;;;;;29.87;26.97;;;;;;;;;;2088487;28;20219;-74
2021/06/29 04:09:09;;;;;;;30.47;27.47;;;;;;;;;;2089628;28;20452;-74
2021/06/29 04:10:12;;;;;;;30.73;27.63;;;;;;;;;;2089624;28;20574;-74
2021/06/29 04:11:13;;;;;;;31.63;28.53;;;;;;;;;;2088670;28;20460;-74
2021/06/29 04:12:14;;;;;;;31.47;28.03;;;;;;;;;;2088804;28;20449;-74
2021/06/29 04:13:15;;;;;;;29.60;26.80;;;;;;;;;;2088907;28;21014;-74
2021/06/29 04:14:16;;;;;;;30.30;26.40;;;;;;;;;;2088670;28;20626;-74
2021/06/29 04:15:17;;;;;;;29.77;26.87;;;;;;;;;;2088694;28;20492;-74
2021/06/29 04:16:19;;;;;;;30.83;27.73;;;;;;;;;;2088975;28;20230;-74
2021/06/29 04:17:20;;;;;;;32.03;28.70;;;;;;;;;;2088687;28;20476;-74
2021/06/29 04:18:20;;;;;;;32.20;28.73;;;;;;;;;;2080485;28;20469;-74
2021/06/29 04:19:22;;;;;;;36.03;30.57;;;;;;;;;;2088784;28;20476;-74
2021/06/29 04:20:22;;;;;;;32.27;28.97;;;;;;;;;;2088473;28;20665;-74
2021/06/29 04:21:24;;;;;;;34.20;29.93;;;;;;;;;;2088776;28;20827;-75
2021/06/29 04:22:25;;;;;;;37.27;30.80;;;;;;;;;;2080648;28;20242;-75
2021/06/29 04:23:26;;;;;;;34.43;30.77;;;;;;;;;;2080329;28;20470;-74
2021/06/29 04:24:27;;;;;;;34.23;30.70;;;;;;;22.40;100.00;164650.31;2088673;28;20231;-74
2021/06/29 04:25:30;;;;;;;36.07;32.17;;;;;;;;;;2089396;28;20525;-74
2021/06/29 04:26:30;;;;;;;34.13;30.50;;;;;;;;;;2088635;28;20627;-74
2021/06/29 04:27:32;;;;;;;37.23;32.00;;;;;;;;;;2080453;28;20438;-74
2021/06/29 04:28:32;;;;;;;36.20;31.03;;;;;;;;;;2088814;28;20222;-74
2021/06/29 04:29:34;;;;;;;39.10;31.37;;;;;;;;;;2089301;28;20488;-74
2021/06/29 04:30:34;;;;;;;36.40;31.43;;;;;;;;;;2089351;28;20237;-74
2021/06/29 04:31:36;;;;;;;41.33;32.90;;;;;;;;;;2089438;28;20479;-74
2021/06/29 04:32:36;;;;;;;35.40;31.63;;;;;;;;;;2088725;28;20227;-74
2021/06/29 04:33:38;;;;;;;35.53;30.93;;;;;;;;;;2082191;28;20442;-75
2021/06/29 04:34:38;;;;;;;36.40;32.43;;;;;;;;;;2081183;28;20223;-75
2021/06/29 04:35:39;;;;;;;37.20;33.00;;;;;;;;;;2081159;28;20485;-75
2021/06/29 04:36:40;;;;;;;44.50;34.97;;;;;;;;;;2080342;28;20720;-74
2021/06/29 04:37:41;;;;;;;41.60;33.83;;;;;;;;;;2080412;28;20878;-74
2021/06/29 04:38:42;;;;;;;47.30;33.60;;;;;;;;;;2081218;28;20285;-74
2021/06/29 04:39:44;;;;;;;41.27;32.80;;;;;;;;;;2080316;28;20956;-75
2021/06/29 04:40:46;;;;;;;43.93;34.10;;;;;;;;;;2072167;28;20220;-74
2021/06/29 04:41:47;;;;;;;43.63;32.03;;;;;;;;;;2079928;28;20493;-74
2021/06/29 04:42:48;;;;;;;45.80;32.90;;;;;;;;;;2080624;28;20458;-75
2021/06/29 04:43:49;;;;;;;41.17;31.23;;;;;;;;;;2081052;28;20486;-74
2021/06/29 04:44:50;;;;;;;37.17;32.30;;;;;;;;;;2081070;28;20231;-75
2021/06/29 04:45:52;;;;;;;41.83;32.10;;;;;;;;;;2081191;28;20466;-73
2021/06/29 04:46:52;;;;;;;37.07;31.17;;;;;;;;;;2086927;28;20227;-75
2021/06/29 04:47:55;;;;;;;41.17;31.23;;;;;;;;;;2088368;28;20453;-75
2021/06/29 04:48:55;;;;;;;37.37;31.60;;;;;;;;;;2088577;28;20230;-75
2021/06/29 04:49:57;;;;;;;37.73;31.47;;;;;;;;;;2088553;28;20477;-74
2021/06/29 04:50:57;;;;;;;38.83;31.90;;;;;;;;;;2088628;28;20225;-74
2021/06/29 04:51:59;;;;;;;34.63;31.10;;;;;;;;;;2089246;28;20453;-74
2021/06/29 04:53:00;;;;;;;40.13;30.67;;;;;;;22.40;100.00;124524.53;2089286;28;20218;-74
2021/06/29 04:54:01;;;;;;;37.47;29.97;;;;;;;;;;2089174;28;20994;-75
2021/06/29 04:55:02;;;;;;;37.17;30.70;;;;;;;22.40;100.00;124524.53;2088575;28;20685;-75
2021/06/29 04:56:16;;;;;;;37.47;29.80;;;;;;;22.40;100.00;124524.53;2088500;28;20452;-74
2021/06/29 04:57:18;;;;;;;35.63;29.97;;;;;;;22.40;100.00;124524.53;2088164;28;20559;-74
2021/06/29 04:58:19;;;;;;;33.67;29.33;;;;;;;22.40;100.00;124524.53;2088524;28;20442;-74
2021/06/29 04:59:20;;;;;;;39.80;30.20;;;;;;;;;;2088538;28;20457;-74
2021/06/29 05:00:21;;;;;;;32.97;29.50;;;;;;;;;;2088605;28;20279;-74
2021/06/29 05:01:23;;;;;;;32.43;28.23;;;;;;;;;;2088823;28;20525;-75
2021/06/29 05:02:23;;;;;;;43.40;30.37;;;;;;;;;;2089038;28;20226;-74
2021/06/29 05:03:26;;;;;;;33.37;28.73;;;;;;;;;;2089074;28;20477;-74
2021/06/29 05:04:27;;;;;;;33.03;29.47;;;;;;;;;;2088354;28;20230;-75
2021/06/29 05:05:28;;;;;;;33.43;28.83;;;;;;;;;;2088448;28;20437;-74
2021/06/29 05:06:29;;;;;;;29.80;26.77;;;;;;;;;;2088471;28;20227;-74
2021/06/29 05:07:30;;;;;;;30.97;27.67;;;;;;;;;;2080093;28;20465;-75
2021/06/29 05:08:31;;;;;;;29.67;26.63;;;;;;;;;;2088517;28;20230;-74
2021/06/29 05:09:33;;;;;;;29.90;26.90;;;;;;;;;;2089127;28;20453;-75
2021/06/29 05:10:33;;;;;;;29.87;26.97;;;;;;;;;;2088346;28;20803;-74
2021/06/29 05:11:37;;;;;;;29.07;25.87;;;;;;;;;;2080018;28;20465;-74
2021/06/29 05:12:37;;;;;;;36.00;26.30;;;;;;;;;;2079828;28;20227;-75
2021/06/29 05:13:39;;;;;;;29.07;26.07;;;;;;;;;;2088412;28;20458;-74
2021/06/29 05:14:39;;;;;;;29.30;26.20;;;;;;;;;;2088885;28;20273;-75
2021/06/29 05:15:41;;;;;;;28.33;25.43;;;;;;;;;;2088971;28;20511;-75
2021/06/29 05:16:41;;;;;;;31.27;26.00;;;;;;;;;;2089164;28;20226;-74
2021/06/29 05:17:43;;;;;;;28.53;25.60;;;;;;;;;;2088231;28;20484;-74
2021/06/29 05:18:44;;;;;;;28.93;26.03;;;;;;;;;;2079991;28;20223;-74
2021/06/29 05:19:45;;;;;;;28.93;26.10;;;;;;;;;;2080097;28;20439;-74
2021/06/29 05:20:46;;;;;;;39.80;26.40;;;;;;;;;;2088398;28;20298;-74
2021/06/29 05:21:47;;;;;;;29.77;25.70;;;;;;;;;;2089140;28;20456;-74
2021/06/29 05:22:48;;;;;;;28.80;26.00;;;;;;;;;;2089059;28;20238;-74
2021/06/29 05:23:49;;;;;;;27.97;25.33;;;;;;;;;;2088954;28;20472;-74
2021/06/29 05:24:50;;;;;;;27.47;24.97;;;;;;;;;;2089077;28;20701;-74
2021/06/29 05:25:51;;;;;;;26.30;24.03;;;;;;;;;;2089114;28;20897;-74
2021/06/29 05:26:53;;;;;;;27.87;25.17;;;;;;;;;;2088651;28;20696;-75
2021/06/29 05:27:55;;;;;;;27.93;25.27;;;;;;;;;;2088077;28;20449;-74
2021/06/29 05:28:55;;;;;;;27.97;25.00;;;;;;;;;;2079814;28;20492;-74
2021/06/29 05:29:57;;;;;;;27.83;24.53;;;;;;;;;;2088193;28;20499;-74
2021/06/29 05:30:57;;;;;;;26.77;24.20;;;;;;;;;;2080036;28;20230;-75
2021/06/29 05:31:59;;;;;;;27.37;24.67;;;;;;;;;;2088248;28;20484;-74
2021/06/29 05:32:59;;;;;;;25.80;23.53;;;;;;;;;;2088404;28;20335;-74
2021/06/29 05:34:01;;;;;;;27.70;24.87;;;;;;;;;;2088183;28;20453;-74
2021/06/29 05:35:02;;;;;;;27.13;24.50;;;;;;;;;;2088151;28;20223;-73
2021/06/29 05:36:03;;;;;;;27.33;24.73;;;;;;;;;;2088293;28;21034;-74
2021/06/29 05:37:04;;;;;;;26.87;24.43;;;;;;;;;;2088914;28;20222;-74
2021/06/29 05:38:07;;;;;;;25.67;23.27;;;;;;;;;;2088951;28;20469;-74
2021/06/29 05:39:08;;;;;;;31.40;25.90;;;;;;;;;;2082150;28;20662;-74
2021/06/29 05:40:09;;;;;;;28.77;25.70;;;;;;;;;;2080483;28;20805;-74
2021/06/29 05:41:10;;;;;;;28.13;24.83;;;;;;;;;;2079836;28;20223;-74
2021/06/29 05:42:14;;;;;;;27.37;24.97;;;;;;;22.40;100.00;57707.53;2079739;28;20442;-74
2021/06/29 05:43:14;;;;;;;27.37;24.57;;;;;;;;;;2079666;28;20249;-74
2021/06/29 05:44:18;;;;;;;27.80;24.97;;;;;;;;;;2078986;28;20442;-74
2021/06/29 05:45:18;;;;;;;25.77;23.23;;;;;;;;;;2082386;28;20594;-74
2021/06/29 05:46:20;;;;;;;27.13;24.20;;;;;;;;;;2079788;28;20530;-74
2021/06/29 05:47:21;;;;;;;26.03;23.53;;;;;;;22.40;100.00;57711.59;2079864;28;20274;-74
2021/06/29 05:48:23;;;;;;;26.83;23.47;;;;;;;;;;2086221;28;20983;-74
2021/06/29 05:49:24;;;;;;;26.13;23.67;;;;;;;;;;2087901;28;20530;-74
2021/06/29 05:50:26;;;;;;;25.27;22.97;;;;;;;;;;2088056;28;20480;-75
2021/06/29 05:51:27;;;;;;;26.23;23.83;;;;;;;;;;2088914;28;20227;-74